This is the latest recevied weather packets stored in our database for station/object LZ2SLL-13. If no packets are shown the sender has not sent any weather packets the latest 1 day(s).
| Time | Temp. | Humidity | Pressure | Rain* | Wind** | Luminosity | Snow |
|---|---|---|---|---|---|---|---|
| 1778054149 | 13.89° C | 77% | - | 0 mm | - | 417 W/m² | - |
| 1778052946 | 14.44° C | 73% | - | 0 mm | - | 367 W/m² | - |
| 1778052044 | 13.33° C | 78% | - | 0 mm | - | 608 W/m² | - |
| 1778051743 | 13.89° C | 78% | - | 0 mm | - | 783 W/m² | - |
| 1778051442 | 13.33° C | 78% | - | 0 mm | - | 692 W/m² | - |
| 1778051142 | 13.33° C | 77% | - | 0 mm | - | 634 W/m² | - |
| 1778050841 | 13.33° C | 76% | - | 0 mm | - | 173 W/m² | - |
| 1778050540 | 13.33° C | 78% | - | 0 mm | - | 599 W/m² | - |
| 1778050240 | 13.89° C | 76% | - | 0 mm | - | 460 W/m² | - |
| 1778049939 | 13.33° C | 77% | - | 0 mm | - | 633 W/m² | - |
| 1778049638 | 12.78° C | 81% | - | 0 mm | - | 834 W/m² | - |
| 1778049037 | 12.78° C | 81% | - | 0 mm | - | 437 W/m² | - |
| 1778048736 | 12.22° C | 81% | - | 0 mm | - | 297 W/m² | - |
| 1778047834 | 13.33° C | 65% | - | 0 mm | - | 457 W/m² | - |
| 1778047533 | 13.33° C | 68% | - | 0 mm | - | 310 W/m² | - |
| 1778046932 | 15° C | 62% | - | 0 mm | - | 425 W/m² | - |
| 1778046631 | 14.44° C | 64% | - | 0 mm | - | 411 W/m² | - |
| 1778045729 | 13.89° C | 67% | - | 0 mm | - | 75 W/m² | - |
| 1778044827 | 13.33° C | 72% | - | 0 mm | - | 299 W/m² | - |
| 1778044526 | 13.33° C | 74% | - | 0 mm | - | 278 W/m² | - |
| 1778043924 | 12.22° C | 72% | - | 0 mm | - | 90 W/m² | - |
| 1778043323 | 11.67° C | 70% | - | 0 mm | - | 97 W/m² | - |
| 1778043022 | 11.67° C | 65% | - | 0 mm | - | 65 W/m² | - |
| 1778042421 | 11.67° C | 57% | - | 0 mm | - | 59 W/m² | - |
| 1778042120 | 12.22° C | 52% | - | 0 mm | - | 57 W/m² | - |
* Rain latest hour (hover to see other rain measurements)
** Current wind speed in m/s (hover to see current wind gust speed)